Impacts TAF Board
For situational awareness. Not to be used for flight planning purposes.
IDs:

KSAT - San Antonio Intl, TX, US

Issued at 2324 UTC 09 Dec 2022
Updated at 0135 UTC 10 Dec 2022
Potential Impact None Slight Moderate High
Time<<11/02Z 11/03Z 11/04Z 11/05Z 11/06Z 11/07Z 11/08Z 11/09Z 11/10Z 11/11Z 11/12Z 11/13Z 11/14Z
Type PRVL PRVL PRVL PRVL
VIS >6 >6 >6 >6
CIG 40 28 28 28
Cover BKN BKN BKN BKN
FltCat VFR MVFR MVFR MVFR
WX -- -- -- --
WDir 160 140 140 140
WSpd 9 4 4 4
WGst -- -- -- --
WSHgt -- -- -- --
WSDir -- -- -- --
WSSpd -- -- -- --
R04/22
XWnd -8 -4 -4 -4 0 0 0 0 0 0 0 0 0
HWnd -4 -1 -1 -1 0 0 0 0 0 0 0 0 0
R13/31
XWnd -4 -1 -1 -1 0 0 0 0 0 0 0 0 0
HWnd 8 4 4 4 0 0 0 0 0 0 0 0 0
Raw TAF
KSAT 092324Z 1000/1106 14008KT P6SM SCT040 BKN250
  FM100400 15006KT 5SM BR BKN015
  FM101100 17005KT 2SM BR OVC006
  FM101500 17007KT P6SM OVC015
  FM101900 16009KT P6SM BKN040
  FM110300 14004KT P6SM BKN028


METAR Board
Radar Display
Forecast Discussion
For situational awareness. Not to be used for flight planning purposes.